createdAt,value
2018-11-10T00:00:49.002Z,9.85
2018-11-10T00:05:41.663Z,9.87
2018-11-10T00:10:34.365Z,9.91
2018-11-10T00:15:27.321Z,9.91
2018-11-10T00:20:20.062Z,9.91
2018-11-10T00:25:13.727Z,9.88
2018-11-10T00:30:08.923Z,9.86
2018-11-10T00:35:01.829Z,9.82
2018-11-10T00:39:54.554Z,9.80
2018-11-10T00:44:47.210Z,9.77
2018-11-10T00:49:40.021Z,9.74
2018-11-10T00:54:32.787Z,9.71
2018-11-10T00:59:25.616Z,9.70
2018-11-10T01:04:18.314Z,9.66
2018-11-10T01:09:11.059Z,9.64
2018-11-10T01:14:03.928Z,9.63
2018-11-10T01:19:06.033Z,9.63
2018-11-10T01:29:04.456Z,9.58
2018-11-10T01:33:57.164Z,9.55
2018-11-10T01:38:49.907Z,9.49
2018-11-10T01:43:42.607Z,9.46
2018-11-10T01:48:35.312Z,9.41
2018-11-10T01:53:28.001Z,9.37
2018-11-10T01:58:20.698Z,9.37
2018-11-10T02:03:13.418Z,9.36
2018-11-10T02:08:06.250Z,9.39
2018-11-10T02:12:58.935Z,9.37
2018-11-10T02:17:51.634Z,9.36
2018-11-10T02:22:44.353Z,9.35
2018-11-10T02:27:37.080Z,9.31
2018-11-10T02:32:29.859Z,9.31
2018-11-10T02:37:22.534Z,9.30
2018-11-10T02:42:15.197Z,9.28
2018-11-10T02:47:07.945Z,9.26
2018-11-10T02:52:00.618Z,9.23
2018-11-10T02:56:53.351Z,9.22
2018-11-10T03:01:46.077Z,9.18
2018-11-10T03:06:38.818Z,9.15
2018-11-10T03:11:31.510Z,9.12
2018-11-10T03:16:24.274Z,9.12
2018-11-10T03:21:16.923Z,9.10
2018-11-10T03:26:09.610Z,9.08
2018-11-10T03:31:02.267Z,9.05
2018-11-10T03:35:54.985Z,9.01
2018-11-10T03:40:47.682Z,8.98
2018-11-10T03:45:40.379Z,8.97
2018-11-10T03:50:33.084Z,8.96
2018-11-10T03:55:25.751Z,8.94
2018-11-10T04:00:18.569Z,8.92
2018-11-10T04:05:12.190Z,8.86
2018-11-10T04:10:05.258Z,8.84
2018-11-10T04:14:57.964Z,8.82
2018-11-10T04:19:50.754Z,8.78
2018-11-10T04:24:43.439Z,8.74
2018-11-10T04:29:36.177Z,8.70
2018-11-10T04:34:28.819Z,8.63
2018-11-10T04:39:21.498Z,8.60
2018-11-10T04:44:14.176Z,8.61
2018-11-10T04:49:06.894Z,8.62
2018-11-10T04:53:59.542Z,8.62
2018-11-10T04:58:52.193Z,8.64
2018-11-10T05:03:44.904Z,8.61
2018-11-10T05:08:37.613Z,8.56
2018-11-10T05:13:30.463Z,8.54
2018-11-10T05:18:23.209Z,8.52
2018-11-10T05:23:15.962Z,8.53
2018-11-10T05:28:08.658Z,8.45
2018-11-10T05:33:01.458Z,8.41
2018-11-10T05:37:54.121Z,8.40
2018-11-10T05:42:46.784Z,8.38
2018-11-10T05:47:39.466Z,8.39
2018-11-10T05:52:32.159Z,8.41
2018-11-10T05:57:24.987Z,8.41
2018-11-10T06:02:17.637Z,8.44
2018-11-10T06:07:10.326Z,8.46
2018-11-10T06:12:03.072Z,8.47
2018-11-10T06:16:55.754Z,8.42
2018-11-10T06:21:48.485Z,8.42
2018-11-10T06:26:41.232Z,8.47
2018-11-10T06:31:33.834Z,8.48
2018-11-10T06:36:26.667Z,8.50
2018-11-10T06:41:19.578Z,8.50
2018-11-10T06:46:12.355Z,8.51
2018-11-10T06:51:05.092Z,8.52
2018-11-10T06:55:57.814Z,8.52
2018-11-10T07:00:50.578Z,8.53
2018-11-10T07:05:43.229Z,8.55
2018-11-10T07:10:35.928Z,8.58
2018-11-10T07:15:28.712Z,8.62
2018-11-10T07:20:21.697Z,8.63
2018-11-10T07:25:16.102Z,8.62
2018-11-10T07:30:11.444Z,8.67
2018-11-10T07:35:05.012Z,8.68
2018-11-10T07:39:57.868Z,8.69
2018-11-10T07:44:50.911Z,8.73
2018-11-10T07:49:43.877Z,8.75
2018-11-10T07:54:36.768Z,8.77
2018-11-10T07:59:29.683Z,8.82
2018-11-10T08:04:22.675Z,8.86
2018-11-10T08:09:15.660Z,8.92
2018-11-10T08:14:08.535Z,8.98
2018-11-10T08:19:01.579Z,9.05
2018-11-10T08:23:54.524Z,9.07
2018-11-10T08:28:47.448Z,9.09
2018-11-10T08:33:40.408Z,9.13
2018-11-10T08:38:33.388Z,9.18
2018-11-10T08:43:26.312Z,9.22
2018-11-10T08:48:19.108Z,9.26
2018-11-10T08:53:11.963Z,9.28
2018-11-10T08:58:05.456Z,9.32
2018-11-10T09:02:58.478Z,9.33
2018-11-10T09:07:51.575Z,9.36
2018-11-10T09:12:44.710Z,9.43
2018-11-10T09:17:37.780Z,9.50
2018-11-10T09:22:30.580Z,9.53
2018-11-10T09:27:25.290Z,9.58
2018-11-10T09:32:19.637Z,9.69
2018-11-10T09:37:14.918Z,9.80
2018-11-10T09:42:13.576Z,9.88
2018-11-10T09:47:06.693Z,9.89
2018-11-10T09:51:59.883Z,9.94
2018-11-10T09:56:54.869Z,9.95
2018-11-10T10:01:48.047Z,10.00
2018-11-10T10:06:40.636Z,10.08
2018-11-10T10:11:33.495Z,10.17
2018-11-10T10:16:26.512Z,10.24
2018-11-10T10:21:19.517Z,10.32
2018-11-10T10:26:12.410Z,10.48
2018-11-10T10:31:05.439Z,10.65
2018-11-10T10:35:58.454Z,10.81
2018-11-10T10:40:51.518Z,11.01
2018-11-10T10:45:44.371Z,11.09
2018-11-10T10:50:37.246Z,11.22
2018-11-10T10:55:30.101Z,11.27
2018-11-10T11:00:28.861Z,11.36
2018-11-10T11:05:28.048Z,11.48
2018-11-10T11:10:22.296Z,11.65
2018-11-10T11:15:15.061Z,11.66
2018-11-10T11:20:07.864Z,11.67
2018-11-10T11:25:00.755Z,11.84
2018-11-10T11:29:53.588Z,12.00
2018-11-10T11:34:46.369Z,12.26
2018-11-10T11:39:39.275Z,12.44
2018-11-10T11:44:32.110Z,12.50
2018-11-10T11:49:27.037Z,12.73
2018-11-10T11:54:19.826Z,12.76
2018-11-10T11:59:12.844Z,12.80
2018-11-10T12:04:10.874Z,12.83
2018-11-10T12:09:06.558Z,12.80
2018-11-10T12:13:59.338Z,12.91
2018-11-10T12:18:52.190Z,13.11
2018-11-10T12:23:44.982Z,13.25
2018-11-10T12:28:37.710Z,13.34
2018-11-10T12:33:30.466Z,13.37
2018-11-10T12:38:23.257Z,13.38
2018-11-10T12:43:15.961Z,13.43
2018-11-10T12:48:08.741Z,13.53
2018-11-10T12:53:02.062Z,13.55
2018-11-10T12:57:56.879Z,13.62
2018-11-10T13:02:49.901Z,13.66
2018-11-10T13:07:49.995Z,13.70
2018-11-10T13:12:43.635Z,13.68
2018-11-10T13:17:37.003Z,13.68
2018-11-10T13:22:30.213Z,13.71
2018-11-10T13:27:23.150Z,13.71
2018-11-10T13:32:16.096Z,13.78
2018-11-10T13:37:09.015Z,13.82
2018-11-10T13:42:03.155Z,13.89
2018-11-10T13:46:55.968Z,13.89
2018-11-10T13:51:49.559Z,13.88
2018-11-10T13:56:42.504Z,13.82
2018-11-10T14:01:35.326Z,13.85
2018-11-10T14:06:28.123Z,13.79
2018-11-10T14:11:20.978Z,13.76
2018-11-10T14:16:27.957Z,13.73
2018-11-10T14:21:21.579Z,13.70
2018-11-10T14:26:15.191Z,13.69
2018-11-10T14:31:08.260Z,13.72
2018-11-10T14:36:01.310Z,13.75
2018-11-10T14:40:54.230Z,13.77
2018-11-10T14:45:47.131Z,13.75
2018-11-10T14:50:39.911Z,13.67
2018-11-10T14:55:32.818Z,13.63
2018-11-10T15:00:27.831Z,13.62
2018-11-10T15:05:20.694Z,13.60
2018-11-10T15:10:14.830Z,13.59
2018-11-10T15:15:09.672Z,13.60
2018-11-10T15:20:02.570Z,13.60
2018-11-10T15:24:55.351Z,13.58
2018-11-10T15:29:48.445Z,13.52
2018-11-10T15:34:41.262Z,13.45
2018-11-10T15:39:34.246Z,13.40
2018-11-10T15:44:27.796Z,13.34
2018-11-10T15:49:20.587Z,13.30
2018-11-10T15:54:13.620Z,13.26
2018-11-10T15:59:06.427Z,13.23
2018-11-10T16:03:59.771Z,13.17
2018-11-10T16:09:10.920Z,13.15
2018-11-10T16:14:19.448Z,13.11
2018-11-10T16:19:32.515Z,13.08
2018-11-10T16:24:27.288Z,13.05
2018-11-10T16:29:20.883Z,13.04
2018-11-10T16:34:16.035Z,13.01
2018-11-10T17:23:25.472Z,12.70
2018-11-10T17:28:32.923Z,12.68
2018-11-10T17:33:34.572Z,12.62
2018-11-10T17:38:27.835Z,12.56
2018-11-10T17:43:21.070Z,12.53
2018-11-10T17:48:14.551Z,12.51
2018-11-10T17:53:07.880Z,12.47
2018-11-10T17:58:01.054Z,12.42
2018-11-10T18:02:53.889Z,12.37
2018-11-10T18:07:46.708Z,12.35
2018-11-10T18:12:39.604Z,12.31
2018-11-10T18:17:32.311Z,12.24
2018-11-10T18:22:24.981Z,12.16
2018-11-10T18:27:17.957Z,12.12
2018-11-10T18:32:10.850Z,12.08
2018-11-10T18:37:03.501Z,12.05
2018-11-10T18:41:56.096Z,12.00
2018-11-10T18:46:48.681Z,11.93
2018-11-10T18:51:41.317Z,11.91
2018-11-10T18:56:34.544Z,11.88
2018-11-10T19:01:27.401Z,11.86
2018-11-10T19:06:20.070Z,11.81
2018-11-10T19:11:12.706Z,11.78
2018-11-10T19:16:05.497Z,11.72
2018-11-10T19:20:58.195Z,11.68
2018-11-10T19:25:50.821Z,11.65
2018-11-10T19:30:43.471Z,11.62
2018-11-10T19:35:36.027Z,11.60
2018-11-10T19:40:28.640Z,11.57
2018-11-10T19:45:21.213Z,11.54
2018-11-10T19:50:14.279Z,11.50
2018-11-10T19:55:11.230Z,11.47
2018-11-10T20:00:09.066Z,11.45
2018-11-10T20:05:01.700Z,11.38
2018-11-10T20:09:54.295Z,11.33
2018-11-10T20:14:47.004Z,11.29
2018-11-10T20:19:39.712Z,11.23
2018-11-10T20:24:32.414Z,11.18
2018-11-10T20:29:25.072Z,11.13
2018-11-10T20:34:17.639Z,11.09
2018-11-10T20:39:10.636Z,11.01
2018-11-10T20:44:03.306Z,10.95
2018-11-10T20:48:55.999Z,10.91
2018-11-10T20:53:48.790Z,10.88
2018-11-10T20:58:41.436Z,10.81
2018-11-10T21:03:34.078Z,10.76
2018-11-10T21:08:26.772Z,10.77
2018-11-10T21:13:19.482Z,10.73
2018-11-10T21:18:12.106Z,10.74
2018-11-10T21:23:04.942Z,10.70
2018-11-10T21:27:57.593Z,10.68
2018-11-10T21:32:50.268Z,10.68
2018-11-10T21:37:42.916Z,10.65
2018-11-10T21:42:35.549Z,10.60
2018-11-10T21:47:28.233Z,10.54
2018-11-10T21:52:20.854Z,10.49
2018-11-10T21:57:13.494Z,10.44
2018-11-10T22:02:06.237Z,10.44
2018-11-10T22:06:59.173Z,10.46
2018-11-10T22:11:51.846Z,10.50
2018-11-10T22:16:44.742Z,10.48
2018-11-10T22:21:37.316Z,10.44
2018-11-10T22:26:29.963Z,10.42
2018-11-10T22:31:22.495Z,10.41
2018-11-10T22:36:15.077Z,10.43
2018-11-10T22:41:07.744Z,10.39
2018-11-10T22:46:00.319Z,10.39
2018-11-10T22:50:53.038Z,10.35
2018-11-10T22:55:45.820Z,10.32
2018-11-10T23:00:43.083Z,10.29
2018-11-10T23:05:35.661Z,10.26
2018-11-10T23:10:28.530Z,10.26
2018-11-10T23:15:21.196Z,10.26
2018-11-10T23:20:15.150Z,10.21
2018-11-10T23:25:09.962Z,10.19
2018-11-10T23:30:02.729Z,10.15
2018-11-10T23:34:55.318Z,10.13
2018-11-10T23:39:48.000Z,10.10
2018-11-10T23:44:40.654Z,10.08
2018-11-10T23:49:33.643Z,10.08
2018-11-10T23:54:26.391Z,10.07
2018-11-10T23:59:19.147Z,10.06
